sensor_id;sensor_type;location;lat;lon;timestamp;pressure;altitude;pressure_sealevel;temperature;humidity
75991;BME280;64673;52.276;10.560;2022-11-27T00:01:17;102079.56;;;-0.09;96.03
75991;BME280;64673;52.276;10.560;2022-11-27T00:03:43;102074.25;;;-0.09;96.40
75991;BME280;64673;52.276;10.560;2022-11-27T00:06:17;102070.28;;;-0.05;96.06
75991;BME280;64673;52.276;10.560;2022-11-27T00:08:43;102068.47;;;-0.04;96.28
75991;BME280;64673;52.276;10.560;2022-11-27T00:11:12;102065.97;;;0.03;96.03
75991;BME280;64673;52.276;10.560;2022-11-27T00:13:39;102067.16;;;0.00;96.55
75991;BME280;64673;52.276;10.560;2022-11-27T00:16:05;102062.19;;;-0.03;96.91
75991;BME280;64673;52.276;10.560;2022-11-27T00:18:31;102066.13;;;-0.07;96.09
75991;BME280;64673;52.276;10.560;2022-11-27T00:21:04;102057.78;;;-0.28;95.63
75991;BME280;64673;52.276;10.560;2022-11-27T00:23:31;102060.94;;;-0.33;96.67
75991;BME280;64673;52.276;10.560;2022-11-27T00:25:56;102064.75;;;-0.35;95.37
75991;BME280;64673;52.276;10.560;2022-11-27T00:28:21;102058.38;;;-0.51;95.94
75991;BME280;64673;52.276;10.560;2022-11-27T00:30:47;102060.69;;;-0.56;95.66
75991;BME280;64673;52.276;10.560;2022-11-27T00:33:12;102054.91;;;-0.51;96.78
75991;BME280;64673;52.276;10.560;2022-11-27T00:35:38;102048.97;;;-0.53;96.51
75991;BME280;64673;52.276;10.560;2022-11-27T00:38:03;102051.25;;;-0.58;96.39
75991;BME280;64673;52.276;10.560;2022-11-27T00:40:29;102047.28;;;-0.54;96.20
75991;BME280;64673;52.276;10.560;2022-11-27T00:42:54;102045.25;;;-0.68;95.98
75991;BME280;64673;52.276;10.560;2022-11-27T00:45:19;102048.75;;;-0.60;96.57
75991;BME280;64673;52.276;10.560;2022-11-27T00:47:45;102055.84;;;-0.68;96.08
75991;BME280;64673;52.276;10.560;2022-11-27T00:50:10;102044.81;;;-0.56;95.98
75991;BME280;64673;52.276;10.560;2022-11-27T00:52:36;102031.00;;;-0.67;96.09
75991;BME280;64673;52.276;10.560;2022-11-27T00:55:01;102031.69;;;-0.65;96.00
75991;BME280;64673;52.276;10.560;2022-11-27T00:57:26;102033.81;;;-0.69;96.98
75991;BME280;64673;52.276;10.560;2022-11-27T00:59:52;102036.31;;;-0.67;96.83
75991;BME280;64673;52.276;10.560;2022-11-27T01:02:17;102039.63;;;-0.65;97.03
75991;BME280;64673;52.276;10.560;2022-11-27T01:04:46;102041.63;;;-0.67;98.11
75991;BME280;64673;52.276;10.560;2022-11-27T01:07:12;102037.31;;;-0.60;97.57
75991;BME280;64673;52.276;10.560;2022-11-27T01:09:38;102044.59;;;-0.62;97.66
75991;BME280;64673;52.276;10.560;2022-11-27T01:12:03;102042.63;;;-0.60;96.71
75991;BME280;64673;52.276;10.560;2022-11-27T01:14:29;102039.94;;;-0.68;97.35
75991;BME280;64673;52.276;10.560;2022-11-27T01:16:54;102035.16;;;-0.65;96.90
75991;BME280;64673;52.276;10.560;2022-11-27T01:19:19;102031.63;;;-0.74;97.87
75991;BME280;64673;52.276;10.560;2022-11-27T01:21:45;102027.69;;;-0.69;96.89
75991;BME280;64673;52.276;10.560;2022-11-27T01:24:12;102029.88;;;-0.65;97.10
75991;BME280;64673;52.276;10.560;2022-11-27T01:26:38;102031.63;;;-0.74;96.56
75991;BME280;64673;52.276;10.560;2022-11-27T01:29:04;102029.28;;;-0.85;97.00
75991;BME280;64673;52.276;10.560;2022-11-27T01:31:30;102023.78;;;-0.91;97.36
75991;BME280;64673;52.276;10.560;2022-11-27T01:34:04;102018.81;;;-0.94;96.98
75991;BME280;64673;52.276;10.560;2022-11-27T01:36:31;102025.44;;;-0.90;96.55
75991;BME280;64673;52.276;10.560;2022-11-27T01:38:57;102022.66;;;-0.89;96.79
75991;BME280;64673;52.276;10.560;2022-11-27T01:41:37;102022.34;;;-0.86;97.24
75991;BME280;64673;52.276;10.560;2022-11-27T01:47:08;102017.34;;;-0.89;97.00
75991;BME280;64673;52.276;10.560;2022-11-27T01:50:12;102015.50;;;-0.96;96.86
75991;BME280;64673;52.276;10.560;2022-11-27T01:52:33;102008.56;;;-0.89;97.40
75991;BME280;64673;52.276;10.560;2022-11-27T01:55:14;102004.72;;;-0.95;97.23
75991;BME280;64673;52.276;10.560;2022-11-27T01:57:51;102000.75;;;-0.99;97.33
75991;BME280;64673;52.276;10.560;2022-11-27T02:00:18;102002.06;;;-0.95;97.70
75991;BME280;64673;52.276;10.560;2022-11-27T02:02:44;102002.06;;;-0.95;97.40
75991;BME280;64673;52.276;10.560;2022-11-27T02:05:15;102000.47;;;-0.88;97.71
75991;BME280;64673;52.276;10.560;2022-11-27T02:07:41;101999.34;;;-0.85;97.00
75991;BME280;64673;52.276;10.560;2022-11-27T02:10:07;102000.63;;;-0.89;96.33
75991;BME280;64673;52.276;10.560;2022-11-27T02:12:59;101990.47;;;-1.02;96.90
75991;BME280;64673;52.276;10.560;2022-11-27T02:15:41;101991.63;;;-1.04;97.01
75991;BME280;64673;52.276;10.560;2022-11-27T02:21:14;101981.69;;;-1.02;97.28
75991;BME280;64673;52.276;10.560;2022-11-27T02:24:00;101989.16;;;-1.06;96.92
75991;BME280;64673;52.276;10.560;2022-11-27T02:29:08;101986.50;;;-1.06;96.10
75991;BME280;64673;52.276;10.560;2022-11-27T02:43:13;101983.88;;;-1.32;96.75
75991;BME280;64673;52.276;10.560;2022-11-27T02:45:43;101973.75;;;-1.36;96.49
75991;BME280;64673;52.276;10.560;2022-11-27T02:48:11;101964.00;;;-1.36;96.18
75991;BME280;64673;52.276;10.560;2022-11-27T02:50:39;101964.78;;;-1.43;96.81
75991;BME280;64673;52.276;10.560;2022-11-27T02:53:11;101954.25;;;-1.35;95.84
75991;BME280;64673;52.276;10.560;2022-11-27T02:55:39;101959.53;;;-1.35;96.92
75991;BME280;64673;52.276;10.560;2022-11-27T02:58:11;101954.72;;;-1.40;96.56
75991;BME280;64673;52.276;10.560;2022-11-27T03:00:39;101950.91;;;-1.37;97.39
75991;BME280;64673;52.276;10.560;2022-11-27T03:03:08;101947.09;;;-1.43;96.90
75991;BME280;64673;52.276;10.560;2022-11-27T03:05:38;101954.72;;;-1.40;97.19
75991;BME280;64673;52.276;10.560;2022-11-27T03:08:09;101941.66;;;-1.41;97.39
75991;BME280;64673;52.276;10.560;2022-11-27T03:13:09;101946.13;;;-1.42;97.22
75991;BME280;64673;52.276;10.560;2022-11-27T03:16:08;101943.47;;;-1.42;97.68
75991;BME280;64673;52.276;10.560;2022-11-27T03:21:31;101931.19;;;-1.51;97.82
75991;BME280;64673;52.276;10.560;2022-11-27T03:23:59;101924.25;;;-1.44;96.88
75991;BME280;64673;52.276;10.560;2022-11-27T03:26:25;101930.22;;;-1.42;96.95
75991;BME280;64673;52.276;10.560;2022-11-27T03:28:52;101925.75;;;-1.50;97.81
75991;BME280;64673;52.276;10.560;2022-11-27T03:31:20;101932.34;;;-1.45;97.29
75991;BME280;64673;52.276;10.560;2022-11-27T03:33:46;101933.34;;;-1.47;97.49
75991;BME280;64673;52.276;10.560;2022-11-27T03:36:13;101926.91;;;-1.44;98.17
75991;BME280;64673;52.276;10.560;2022-11-27T03:38:40;101928.44;;;-1.33;97.27
75991;BME280;64673;52.276;10.560;2022-11-27T03:49:39;101919.22;;;-1.29;96.48
75991;BME280;64673;52.276;10.560;2022-11-27T03:54:58;101921.66;;;-1.36;97.36
75991;BME280;64673;52.276;10.560;2022-11-27T03:57:34;101916.84;;;-1.40;96.33
75991;BME280;64673;52.276;10.560;2022-11-27T04:00:05;101915.47;;;-1.53;96.80
75991;BME280;64673;52.276;10.560;2022-11-27T04:02:47;101918.09;;;-1.53;96.93
75991;BME280;64673;52.276;10.560;2022-11-27T04:05:14;101921.59;;;-1.52;97.52
75991;BME280;64673;52.276;10.560;2022-11-27T04:07:39;101921.78;;;-1.45;96.89
75991;BME280;64673;52.276;10.560;2022-11-27T04:10:06;101918.44;;;-1.48;97.65
75991;BME280;64673;52.276;10.560;2022-11-27T04:12:32;101920.63;;;-1.43;97.53
75991;BME280;64673;52.276;10.560;2022-11-27T04:14:57;101920.09;;;-1.47;97.93
75991;BME280;64673;52.276;10.560;2022-11-27T04:17:22;101914.91;;;-1.30;97.00
75991;BME280;64673;52.276;10.560;2022-11-27T04:19:48;101917.41;;;-1.29;97.47
75991;BME280;64673;52.276;10.560;2022-11-27T04:22:13;101908.63;;;-1.29;97.89
75991;BME280;64673;52.276;10.560;2022-11-27T04:24:39;101903.66;;;-1.32;98.00
75991;BME280;64673;52.276;10.560;2022-11-27T04:27:04;101910.16;;;-1.19;97.41
75991;BME280;64673;52.276;10.560;2022-11-27T04:29:29;101902.47;;;-0.96;96.21
75991;BME280;64673;52.276;10.560;2022-11-27T04:31:55;101910.72;;;-0.99;96.57
75991;BME280;64673;52.276;10.560;2022-11-27T04:34:20;101916.34;;;-0.94;97.70
75991;BME280;64673;52.276;10.560;2022-11-27T04:36:45;101922.53;;;-0.85;96.40
75991;BME280;64673;52.276;10.560;2022-11-27T04:39:11;101911.44;;;-0.73;95.79
75991;BME280;64673;52.276;10.560;2022-11-27T04:41:37;101918.22;;;-0.78;97.52
75991;BME280;64673;52.276;10.560;2022-11-27T04:44:03;101914.09;;;-0.81;96.79
75991;BME280;64673;52.276;10.560;2022-11-27T04:46:29;101907.81;;;-0.71;96.14
75991;BME280;64673;52.276;10.560;2022-11-27T04:48:55;101908.16;;;-0.66;95.71
75991;BME280;64673;52.276;10.560;2022-11-27T04:51:20;101906.50;;;-0.67;95.96
75991;BME280;64673;52.276;10.560;2022-11-27T04:53:45;101906.81;;;-0.62;96.10
75991;BME280;64673;52.276;10.560;2022-11-27T04:56:10;101910.97;;;-0.76;95.61
75991;BME280;64673;52.276;10.560;2022-11-27T04:58:36;101920.50;;;-0.99;96.91
75991;BME280;64673;52.276;10.560;2022-11-27T05:01:01;101908.75;;;-0.97;98.00
75991;BME280;64673;52.276;10.560;2022-11-27T05:03:27;101912.56;;;-0.91;96.59
75991;BME280;64673;52.276;10.560;2022-11-27T05:05:56;101902.97;;;-0.84;95.91
75991;BME280;64673;52.276;10.560;2022-11-27T05:08:23;101897.63;;;-1.08;96.33
75991;BME280;64673;52.276;10.560;2022-11-27T05:11:02;101906.31;;;-1.24;95.82
75991;BME280;64673;52.276;10.560;2022-11-27T05:13:27;101905.31;;;-1.31;96.20
75991;BME280;64673;52.276;10.560;2022-11-27T05:15:53;101900.63;;;-1.37;96.51
75991;BME280;64673;52.276;10.560;2022-11-27T05:18:18;101899.66;;;-1.36;96.98
75991;BME280;64673;52.276;10.560;2022-11-27T05:20:43;101900.28;;;-1.42;96.54
75991;BME280;64673;52.276;10.560;2022-11-27T05:23:09;101893.31;;;-1.52;97.00
75991;BME280;64673;52.276;10.560;2022-11-27T05:25:34;101894.25;;;-1.61;96.27
75991;BME280;64673;52.276;10.560;2022-11-27T05:27:59;101886.09;;;-1.67;97.20
75991;BME280;64673;52.276;10.560;2022-11-27T05:30:25;101879.69;;;-1.65;96.35
75991;BME280;64673;52.276;10.560;2022-11-27T05:32:50;101870.91;;;-1.65;96.97
75991;BME280;64673;52.276;10.560;2022-11-27T05:35:15;101873.25;;;-1.62;97.05
75991;BME280;64673;52.276;10.560;2022-11-27T05:37:41;101870.47;;;-1.61;97.16
75991;BME280;64673;52.276;10.560;2022-11-27T05:40:06;101874.91;;;-1.61;97.20
75991;BME280;64673;52.276;10.560;2022-11-27T05:42:32;101873.59;;;-1.57;97.08
75991;BME280;64673;52.276;10.560;2022-11-27T05:44:57;101872.16;;;-1.52;96.80
75991;BME280;64673;52.276;10.560;2022-11-27T05:47:22;101871.47;;;-1.54;96.84
75991;BME280;64673;52.276;10.560;2022-11-27T05:49:48;101857.69;;;-1.65;96.26
75991;BME280;64673;52.276;10.560;2022-11-27T05:52:13;101853.69;;;-1.69;96.79
75991;BME280;64673;52.276;10.560;2022-11-27T05:54:38;101845.59;;;-1.68;96.92
75991;BME280;64673;52.276;10.560;2022-11-27T05:57:04;101846.66;;;-1.61;97.30
75991;BME280;64673;52.276;10.560;2022-11-27T05:59:29;101840.38;;;-1.60;97.66
75991;BME280;64673;52.276;10.560;2022-11-27T06:01:54;101841.53;;;-1.54;97.35
75991;BME280;64673;52.276;10.560;2022-11-27T06:04:20;101838.91;;;-1.46;96.77
75991;BME280;64673;52.276;10.560;2022-11-27T06:06:45;101831.13;;;-1.48;97.61
75991;BME280;64673;52.276;10.560;2022-11-27T06:09:10;101836.44;;;-1.48;97.67
75991;BME280;64673;52.276;10.560;2022-11-27T06:11:36;101837.78;;;-1.43;98.06
75991;BME280;64673;52.276;10.560;2022-11-27T06:14:01;101833.63;;;-1.46;97.85
75991;BME280;64673;52.276;10.560;2022-11-27T06:16:26;101832.34;;;-1.42;97.43
75991;BME280;64673;52.276;10.560;2022-11-27T06:18:53;101834.47;;;-1.37;97.41
75991;BME280;64673;52.276;10.560;2022-11-27T06:21:20;101829.69;;;-1.42;98.01
75991;BME280;64673;52.276;10.560;2022-11-27T06:23:45;101827.19;;;-1.43;98.02
75991;BME280;64673;52.276;10.560;2022-11-27T06:26:19;101826.19;;;-1.51;97.56
75991;BME280;64673;52.276;10.560;2022-11-27T06:28:45;101824.84;;;-1.55;97.65
75991;BME280;64673;52.276;10.560;2022-11-27T06:31:15;101820.38;;;-1.54;97.22
75991;BME280;64673;52.276;10.560;2022-11-27T06:33:41;101819.84;;;-1.58;98.48
75991;BME280;64673;52.276;10.560;2022-11-27T06:36:07;101811.09;;;-1.58;97.62
75991;BME280;64673;52.276;10.560;2022-11-27T06:38:34;101811.75;;;-1.56;98.10
75991;BME280;64673;52.276;10.560;2022-11-27T06:41:08;101808.28;;;-1.57;98.24
75991;BME280;64673;52.276;10.560;2022-11-27T06:43:34;101800.34;;;-1.57;97.81
75991;BME280;64673;52.276;10.560;2022-11-27T06:46:00;101804.66;;;-1.56;98.13
75991;BME280;64673;52.276;10.560;2022-11-27T06:48:26;101793.91;;;-1.54;97.86
75991;BME280;64673;52.276;10.560;2022-11-27T06:50:51;101796.41;;;-1.53;97.94
75991;BME280;64673;52.276;10.560;2022-11-27T06:53:16;101791.78;;;-1.51;97.93
75991;BME280;64673;52.276;10.560;2022-11-27T06:55:42;101794.44;;;-1.51;96.95
75991;BME280;64673;52.276;10.560;2022-11-27T06:58:07;101794.44;;;-1.51;96.89
75991;BME280;64673;52.276;10.560;2022-11-27T07:00:32;101798.38;;;-1.55;97.40
75991;BME280;64673;52.276;10.560;2022-11-27T07:02:58;101800.41;;;-1.49;97.60
75991;BME280;64673;52.276;10.560;2022-11-27T07:05:23;101802.00;;;-1.56;97.67
75991;BME280;64673;52.276;10.560;2022-11-27T07:07:49;101795.91;;;-1.56;96.91
75991;BME280;64673;52.276;10.560;2022-11-27T07:10:14;101792.75;;;-1.60;97.22
75991;BME280;64673;52.276;10.560;2022-11-27T07:12:40;101797.41;;;-1.54;97.46
75991;BME280;64673;52.276;10.560;2022-11-27T07:15:06;101796.88;;;-1.57;97.31
75991;BME280;64673;52.276;10.560;2022-11-27T07:17:33;101794.06;;;-1.64;97.09
75991;BME280;64673;52.276;10.560;2022-11-27T07:19:58;101786.59;;;-1.68;97.50
75991;BME280;64673;52.276;10.560;2022-11-27T07:22:24;101789.59;;;-1.63;96.66
75991;BME280;64673;52.276;10.560;2022-11-27T07:24:49;101782.00;;;-1.58;96.39
75991;BME280;64673;52.276;10.560;2022-11-27T07:27:14;101779.34;;;-1.58;96.88
75991;BME280;64673;52.276;10.560;2022-11-27T07:29:40;101782.19;;;-1.60;97.40
75991;BME280;64673;52.276;10.560;2022-11-27T07:32:05;101782.19;;;-1.52;97.34
75991;BME280;64673;52.276;10.560;2022-11-27T07:34:30;101785.00;;;-1.53;97.30
75991;BME280;64673;52.276;10.560;2022-11-27T07:36:56;101787.19;;;-1.49;97.51
75991;BME280;64673;52.276;10.560;2022-11-27T07:39:21;101784.03;;;-1.44;97.11
75991;BME280;64673;52.276;10.560;2022-11-27T07:41:46;101786.53;;;-1.42;96.59
75991;BME280;64673;52.276;10.560;2022-11-27T07:44:11;101782.69;;;-1.48;96.92
75991;BME280;64673;52.276;10.560;2022-11-27T07:46:37;101782.91;;;-1.33;97.16
75991;BME280;64673;52.276;10.560;2022-11-27T07:49:02;101775.94;;;-1.34;97.39
75991;BME280;64673;52.276;10.560;2022-11-27T07:51:28;101772.00;;;-1.38;97.29
75991;BME280;64673;52.276;10.560;2022-11-27T07:53:53;101767.03;;;-1.33;97.14
75991;BME280;64673;52.276;10.560;2022-11-27T07:56:19;101771.19;;;-1.23;96.43
75991;BME280;64673;52.276;10.560;2022-11-27T07:58:45;101755.97;;;-1.13;96.33
75991;BME280;64673;52.276;10.560;2022-11-27T08:01:13;101758.31;;;-1.09;96.69
75991;BME280;64673;52.276;10.560;2022-11-27T08:03:39;101758.63;;;-1.04;97.23
75991;BME280;64673;52.276;10.560;2022-11-27T08:06:22;101748.88;;;-1.04;97.35
75991;BME280;64673;52.276;10.560;2022-11-27T08:08:49;101754.16;;;-1.04;96.34
75991;BME280;64673;52.276;10.560;2022-11-27T08:11:26;101760.78;;;-0.84;96.27
75991;BME280;64673;52.276;10.560;2022-11-27T08:13:58;101755.16;;;-0.81;97.00
75991;BME280;64673;52.276;10.560;2022-11-27T08:16:24;101756.81;;;-0.71;95.93
75991;BME280;64673;52.276;10.560;2022-11-27T08:18:50;101752.03;;;-0.68;97.31
75991;BME280;64673;52.276;10.560;2022-11-27T08:21:15;101756.13;;;-0.49;96.63
75991;BME280;64673;52.276;10.560;2022-11-27T08:23:40;101758.47;;;-0.54;97.25
75991;BME280;64673;52.276;10.560;2022-11-27T08:26:07;101758.13;;;-0.43;97.12
75991;BME280;64673;52.276;10.560;2022-11-27T08:28:33;101763.09;;;-0.56;96.67
75991;BME280;64673;52.276;10.560;2022-11-27T08:30:59;101758.13;;;-0.51;96.78
75991;BME280;64673;52.276;10.560;2022-11-27T08:33:25;101762.94;;;-0.47;96.03
75991;BME280;64673;52.276;10.560;2022-11-27T08:35:51;101766.56;;;-0.48;97.42
75991;BME280;64673;52.276;10.560;2022-11-27T08:38:16;101772.19;;;-0.34;96.09
75991;BME280;64673;52.276;10.560;2022-11-27T08:40:42;101774.97;;;-0.20;96.08
75991;BME280;64673;52.276;10.560;2022-11-27T08:43:07;101772.97;;;-0.18;95.39
75991;BME280;64673;52.276;10.560;2022-11-27T08:45:32;101765.81;;;-0.09;95.67
75991;BME280;64673;52.276;10.560;2022-11-27T08:47:58;101772.94;;;-0.10;96.25
75991;BME280;64673;52.276;10.560;2022-11-27T08:50:24;101772.59;;;0.02;96.22
75991;BME280;64673;52.276;10.560;2022-11-27T08:52:49;101768.41;;;0.15;95.51
75991;BME280;64673;52.276;10.560;2022-11-27T08:55:14;101766.56;;;0.16;95.86
75991;BME280;64673;52.276;10.560;2022-11-27T08:57:40;101760.56;;;0.30;95.40
75991;BME280;64673;52.276;10.560;2022-11-27T09:00:05;101763.13;;;0.46;94.12
75991;BME280;64673;52.276;10.560;2022-11-27T09:02:32;101765.09;;;0.52;95.03
75991;BME280;64673;52.276;10.560;2022-11-27T09:04:58;101763.22;;;0.61;95.79
75991;BME280;64673;52.276;10.560;2022-11-27T09:07:23;101757.69;;;0.70;96.80
75991;BME280;64673;52.276;10.560;2022-11-27T09:09:49;101754.31;;;0.77;94.80
75991;BME280;64673;52.276;10.560;2022-11-27T09:12:14;101753.91;;;0.88;95.61
75991;BME280;64673;52.276;10.560;2022-11-27T09:14:39;101753.50;;;0.99;95.53
75991;BME280;64673;52.276;10.560;2022-11-27T09:17:05;101751.31;;;1.02;96.66
75991;BME280;64673;52.276;10.560;2022-11-27T09:19:30;101751.75;;;1.06;96.45
75991;BME280;64673;52.276;10.560;2022-11-27T09:21:55;101751.75;;;1.06;95.53
75991;BME280;64673;52.276;10.560;2022-11-27T09:24:21;101749.16;;;1.21;95.09
75991;BME280;64673;52.276;10.560;2022-11-27T09:26:46;101755.88;;;1.31;94.44
75991;BME280;64673;52.276;10.560;2022-11-27T09:29:11;101752.78;;;1.42;96.15
75991;BME280;64673;52.276;10.560;2022-11-27T09:31:37;101754.09;;;1.46;95.96
75991;BME280;64673;52.276;10.560;2022-11-27T09:34:02;101746.97;;;1.47;95.29
75991;BME280;64673;52.276;10.560;2022-11-27T09:36:29;101741.44;;;1.48;96.42
75991;BME280;64673;52.276;10.560;2022-11-27T09:38:54;101743.38;;;1.55;96.53
75991;BME280;64673;52.276;10.560;2022-11-27T09:46:47;101725.25;;;1.73;95.49
75991;BME280;64673;52.276;10.560;2022-11-27T09:49:23;101716.25;;;1.74;95.44
75991;BME280;64673;52.276;10.560;2022-11-27T09:51:54;101699.19;;;1.83;96.13
75991;BME280;64673;52.276;10.560;2022-11-27T09:54:27;101698.66;;;1.88;94.22
75991;BME280;64673;52.276;10.560;2022-11-27T09:56:54;101692.03;;;1.98;95.06
75991;BME280;64673;52.276;10.560;2022-11-27T09:59:22;101687.78;;;2.04;94.68
75991;BME280;64673;52.276;10.560;2022-11-27T10:01:49;101688.50;;;2.12;93.49
75991;BME280;64673;52.276;10.560;2022-11-27T10:04:16;101684.34;;;2.25;93.66
75991;BME280;64673;52.276;10.560;2022-11-27T10:07:00;101685.03;;;2.48;93.77
75991;BME280;64673;52.276;10.560;2022-11-27T10:17:37;101666.22;;;2.71;94.73
75991;BME280;64673;52.276;10.560;2022-11-27T10:23:02;101654.28;;;2.88;94.17
75991;BME280;64673;52.276;10.560;2022-11-27T10:25:48;101647.84;;;3.04;93.97
75991;BME280;64673;52.276;10.560;2022-11-27T10:31:07;101646.31;;;3.16;93.51
75991;BME280;64673;52.276;10.560;2022-11-27T10:33:50;101641.19;;;3.21;93.51
75991;BME280;64673;52.276;10.560;2022-11-27T10:36:24;101640.91;;;3.37;93.72
75991;BME280;64673;52.276;10.560;2022-11-27T10:38:53;101641.19;;;3.49;93.41
75991;BME280;64673;52.276;10.560;2022-11-27T10:41:31;101640.84;;;3.58;93.24
75991;BME280;64673;52.276;10.560;2022-11-27T10:44:11;101635.41;;;3.80;92.59
75991;BME280;64673;52.276;10.560;2022-11-27T10:46:39;101633.56;;;3.87;91.95
75991;BME280;64673;52.276;10.560;2022-11-27T10:49:05;101636.03;;;3.88;91.85
75991;BME280;64673;52.276;10.560;2022-11-27T10:51:33;101644.31;;;4.00;91.47
75991;BME280;64673;52.276;10.560;2022-11-27T10:54:03;101633.06;;;4.24;91.57
75991;BME280;64673;52.276;10.560;2022-11-27T10:59:24;101641.75;;;4.33;90.21
75991;BME280;64673;52.276;10.560;2022-11-27T11:01:51;101642.72;;;4.25;90.72
75991;BME280;64673;52.276;10.560;2022-11-27T11:04:26;101630.81;;;4.28;91.73
75991;BME280;64673;52.276;10.560;2022-11-27T11:06:52;101625.09;;;4.37;91.45
75991;BME280;64673;52.276;10.560;2022-11-27T11:09:26;101611.75;;;4.37;91.15
75991;BME280;64673;52.276;10.560;2022-11-27T11:12:14;101605.81;;;4.42;91.82
75991;BME280;64673;52.276;10.560;2022-11-27T11:14:58;101597.38;;;4.45;91.92
75991;BME280;64673;52.276;10.560;2022-11-27T11:17:30;101603.31;;;4.47;91.17
75991;BME280;64673;52.276;10.560;2022-11-27T11:19:59;101597.19;;;4.53;91.45
75991;BME280;64673;52.276;10.560;2022-11-27T11:22:27;101601.47;;;4.48;91.26
75991;BME280;64673;52.276;10.560;2022-11-27T11:24:52;101598.00;;;4.54;91.35
75991;BME280;64673;52.276;10.560;2022-11-27T11:27:24;101597.59;;;4.63;90.63
75991;BME280;64673;52.276;10.560;2022-11-27T11:29:55;101600.47;;;4.68;91.42
75991;BME280;64673;52.276;10.560;2022-11-27T11:32:25;101597.63;;;4.76;90.62
75991;BME280;64673;52.276;10.560;2022-11-27T11:37:24;101597.00;;;4.74;90.84
75991;BME280;64673;52.276;10.560;2022-11-27T11:40:00;101601.72;;;4.79;90.36
75991;BME280;64673;52.276;10.560;2022-11-27T11:42:30;101605.41;;;4.85;89.87
75991;BME280;64673;52.276;10.560;2022-11-27T11:47:28;101601.09;;;4.97;90.43
75991;BME280;64673;52.276;10.560;2022-11-27T11:49:54;101595.53;;;5.05;89.67
75991;BME280;64673;52.276;10.560;2022-11-27T11:52:24;101588.97;;;5.07;90.51
75991;BME280;64673;52.276;10.560;2022-11-27T11:57:41;101579.44;;;5.25;89.86
75991;BME280;64673;52.276;10.560;2022-11-27T12:00:21;101575.91;;;5.31;89.09
75991;BME280;64673;52.276;10.560;2022-11-27T12:08:02;101558.19;;;5.43;89.42
75991;BME280;64673;52.276;10.560;2022-11-27T12:16:09;101559.75;;;5.70;89.67
75991;BME280;64673;52.276;10.560;2022-11-27T12:21:22;101549.81;;;5.77;88.17
75991;BME280;64673;52.276;10.560;2022-11-27T12:24:08;101542.16;;;5.87;88.57
75991;BME280;64673;52.276;10.560;2022-11-27T12:42:49;101509.97;;;6.01;87.74
75991;BME280;64673;52.276;10.560;2022-11-27T12:45:20;101509.38;;;5.99;87.71
75991;BME280;64673;52.276;10.560;2022-11-27T12:47:52;101494.53;;;6.03;87.66
75991;BME280;64673;52.276;10.560;2022-11-27T12:52:58;101487.31;;;6.03;88.05
75991;BME280;64673;52.276;10.560;2022-11-27T12:55:29;101483.97;;;6.08;87.99
75991;BME280;64673;52.276;10.560;2022-11-27T12:58:04;101483.16;;;6.07;87.65
75991;BME280;64673;52.276;10.560;2022-11-27T13:00:34;101486.03;;;6.06;87.75
75991;BME280;64673;52.276;10.560;2022-11-27T13:03:15;101485.63;;;6.09;87.54
75991;BME280;64673;52.276;10.560;2022-11-27T13:05:46;101479.03;;;6.05;88.66
75991;BME280;64673;52.276;10.560;2022-11-27T13:08:27;101471.47;;;6.02;88.71
75991;BME280;64673;52.276;10.560;2022-11-27T13:10:57;101475.78;;;6.03;87.83
75991;BME280;64673;52.276;10.560;2022-11-27T13:13:33;101476.94;;;6.13;87.37
75991;BME280;64673;52.276;10.560;2022-11-27T13:16:10;101469.72;;;6.14;87.13
75991;BME280;64673;52.276;10.560;2022-11-27T13:18:44;101464.81;;;6.11;87.86
75991;BME280;64673;52.276;10.560;2022-11-27T13:21:17;101451.81;;;6.14;87.07
75991;BME280;64673;52.276;10.560;2022-11-27T13:23:44;101450.59;;;6.10;87.50
75991;BME280;64673;52.276;10.560;2022-11-27T13:26:20;101444.22;;;6.05;87.13
75991;BME280;64673;52.276;10.560;2022-11-27T13:28:53;101440.69;;;6.11;87.11
75991;BME280;64673;52.276;10.560;2022-11-27T13:31:23;101437.59;;;6.14;86.38
75991;BME280;64673;52.276;10.560;2022-11-27T13:33:50;101437.19;;;6.10;88.14
75991;BME280;64673;52.276;10.560;2022-11-27T13:36:39;101438.63;;;6.13;86.87
75991;BME280;64673;52.276;10.560;2022-11-27T13:39:14;101435.78;;;6.08;87.13
75991;BME280;64673;52.276;10.560;2022-11-27T13:41:45;101429.81;;;6.06;86.86
75991;BME280;64673;52.276;10.560;2022-11-27T13:44:23;101418.94;;;6.01;87.63
75991;BME280;64673;52.276;10.560;2022-11-27T13:46:50;101425.13;;;6.01;87.70
75991;BME280;64673;52.276;10.560;2022-11-27T13:49:31;101416.41;;;6.06;88.56
75991;BME280;64673;52.276;10.560;2022-11-27T13:52:17;101415.03;;;6.03;87.10
75991;BME280;64673;52.276;10.560;2022-11-27T13:54:54;101412.56;;;6.02;86.20
75991;BME280;64673;52.276;10.560;2022-11-27T13:57:21;101407.19;;;6.02;87.95
75991;BME280;64673;52.276;10.560;2022-11-27T14:02:48;101401.22;;;6.00;88.39
75991;BME280;64673;52.276;10.560;2022-11-27T14:05:17;101398.38;;;5.95;88.25
75991;BME280;64673;52.276;10.560;2022-11-27T14:07:46;101395.13;;;5.93;88.53
75991;BME280;64673;52.276;10.560;2022-11-27T14:10:24;101394.91;;;5.87;89.13
75991;BME280;64673;52.276;10.560;2022-11-27T14:15:24;101394.31;;;5.85;88.90
75991;BME280;64673;52.276;10.560;2022-11-27T14:17:53;101393.13;;;5.81;89.40
75991;BME280;64673;52.276;10.560;2022-11-27T14:20:30;101386.97;;;5.74;89.39
75991;BME280;64673;52.276;10.560;2022-11-27T14:22:57;101381.91;;;5.66;90.03
75991;BME280;64673;52.276;10.560;2022-11-27T14:25:30;101383.34;;;5.62;89.77
75991;BME280;64673;52.276;10.560;2022-11-27T14:28:03;101380.53;;;5.57;89.78
75991;BME280;64673;52.276;10.560;2022-11-27T14:30:39;101374.56;;;5.55;89.31
75991;BME280;64673;52.276;10.560;2022-11-27T14:33:15;101377.66;;;5.52;89.66
75991;BME280;64673;52.276;10.560;2022-11-27T14:35:41;101375.03;;;5.45;90.29